Time;durP1;ratioP1;P1;durP2;ratioP2;P2;SDS_P1;SDS_P2;PMS_P1;PMS_P2;Temp;Humidity;BMP_temperature;BMP_pressure;BME280_temperature;BME280_humidity;BME280_pressure;Samples;Min_cycle;Max_cycle;Signal;HPM_P1;HPM_P2
2023/12/17 00:01:37;;;;;;;22.00;13.07;;;8.90;99.90;;;8.87;89.50;102767.81;5076900;28;20062;-83
2023/12/17 00:04:05;;;;;;;29.17;14.55;;;8.90;99.90;;;8.86;89.12;102774.13;5075741;28;20131;-83
2023/12/17 00:06:35;;;;;;;25.65;12.98;;;8.90;99.90;;;8.87;88.83;102773.97;5076727;28;20040;-83
2023/12/17 00:09:03;;;;;;;28.58;13.90;;;8.90;99.90;;;8.89;88.95;102781.81;5075060;28;20048;-83
2023/12/17 00:11:30;;;;;;;21.95;13.30;;;8.90;99.90;;;8.96;88.98;102780.25;5076467;28;20048;-83
2023/12/17 00:13:58;;;;;;;25.15;13.13;;;8.90;99.90;;;8.93;88.65;102769.88;5075733;28;20479;-83
2023/12/17 00:16:28;;;;;;;31.38;13.25;;;8.90;99.90;;;8.93;88.85;102775.19;5076141;28;20049;-83
2023/12/17 00:18:55;;;;;;;24.92;13.20;;;8.90;99.90;;;8.93;88.60;102777.88;5074649;28;20044;-83
2023/12/17 00:21:23;;;;;;;27.85;13.15;;;8.90;99.90;;;8.83;88.84;102767.25;5073963;28;20047;-83
2023/12/17 00:23:50;;;;;;;26.05;13.27;;;8.90;99.90;;;8.77;89.34;102766.00;5074425;28;20052;-83
2023/12/17 00:26:17;;;;;;;26.45;13.75;;;8.90;99.90;;;8.83;89.41;102769.91;5057833;28;20043;-83
2023/12/17 00:28:45;;;;;;;24.60;13.18;;;8.90;99.90;;;8.84;89.44;102762.78;5074269;28;20143;-83
2023/12/17 00:31:13;;;;;;;26.60;13.95;;;8.90;99.90;;;8.86;89.62;102756.31;5074640;28;20094;-83
2023/12/17 00:33:42;;;;;;;25.83;13.45;;;9.00;99.90;;;8.84;89.42;102745.00;5074170;28;20113;-83
2023/12/17 00:36:10;;;;;;;23.95;13.40;;;8.90;99.90;;;8.88;89.40;102740.19;5075554;28;20036;-83
2023/12/17 00:38:37;;;;;;;23.35;12.85;;;8.90;99.90;;;8.88;89.13;102733.09;5074700;28;20102;-83
2023/12/17 00:41:06;;;;;;;23.75;13.65;;;8.90;99.90;;;8.80;89.47;102730.28;5057525;28;20075;-83
2023/12/17 00:43:35;;;;;;;26.77;13.30;;;8.90;99.90;;;8.88;89.45;102726.91;5059493;28;20140;-83
2023/12/17 00:46:02;;;;;;;24.77;13.23;;;8.90;99.90;;;8.94;89.20;102732.50;5065316;28;20048;-83
2023/12/17 00:48:29;;;;;;;22.50;12.63;;;8.90;99.90;;;8.97;89.03;102726.88;5077513;28;20045;-83
2023/12/17 00:50:58;;;;;;;25.77;13.20;;;8.90;99.90;;;8.99;88.73;102732.91;5077806;28;20503;-83
2023/12/17 00:53:26;;;;;;;25.85;13.48;;;8.90;99.90;;;9.02;88.56;102723.78;5079225;28;20098;-83
2023/12/17 00:55:53;;;;;;;24.75;13.43;;;9.00;99.90;;;8.88;88.82;102735.75;5077602;28;20059;-83
2023/12/17 00:58:20;;;;;;;24.38;13.10;;;8.90;99.90;;;8.81;89.30;102731.13;5078040;28;20047;-83
2023/12/17 01:00:49;;;;;;;21.80;12.70;;;8.90;99.90;;;8.87;89.48;102726.06;5077417;28;20064;-83
2023/12/17 01:03:17;;;;;;;24.58;12.80;;;8.90;99.90;;;8.86;89.36;102739.53;5077212;28;20499;-83
2023/12/17 01:05:44;;;;;;;23.52;13.50;;;8.90;99.90;;;8.87;89.30;102738.53;5077016;28;20123;-83
2023/12/17 01:08:13;;;;;;;23.77;13.35;;;8.90;99.90;;;8.93;89.33;102744.13;5076563;28;20044;-83
2023/12/17 01:10:40;;;;;;;22.77;13.07;;;8.90;99.90;;;8.90;89.20;102740.91;5078711;28;20127;-83
2023/12/17 01:13:07;;;;;;;24.15;13.07;;;8.90;99.90;;;8.96;89.19;102745.66;5059904;28;20078;-83
2023/12/17 01:15:35;;;;;;;23.10;13.13;;;8.90;99.90;;;8.91;89.03;102739.94;5076413;28;20503;-83
2023/12/17 01:18:01;;;;;;;23.63;13.25;;;8.90;99.90;;;8.87;89.29;102741.19;5076518;28;20047;-83
2023/12/17 01:20:29;;;;;;;25.95;14.23;;;8.90;99.90;;;8.81;89.36;102733.78;5076799;28;20045;-83
2023/12/17 01:22:56;;;;;;;27.95;15.40;;;8.90;99.90;;;8.74;89.72;102747.69;5078125;28;20041;-83
2023/12/17 01:25:26;;;;;;;28.33;14.98;;;8.80;99.90;;;8.73;90.34;102751.28;5076748;28;20052;-83
2023/12/17 01:27:53;;;;;;;24.50;14.38;;;8.80;99.90;;;8.80;90.30;102751.59;5076607;28;20586;-83
2023/12/17 01:30:20;;;;;;;27.70;15.90;;;8.90;99.90;;;8.80;90.06;102751.59;5076455;28;20048;-83
2023/12/17 01:32:48;;;;;;;20.60;13.73;;;8.90;99.90;;;8.84;90.05;102762.78;5076789;28;20033;-83
2023/12/17 01:35:15;;;;;;;25.85;13.50;;;8.90;99.90;;;8.87;89.85;102763.31;5077862;28;20506;-83
2023/12/17 01:37:42;;;;;;;28.08;15.18;;;8.90;99.90;;;8.79;89.75;102743.75;5077584;28;20048;-83
2023/12/17 01:40:11;;;;;;;25.20;13.85;;;8.80;99.90;;;8.84;89.94;102752.13;5077530;28;20090;-83
2023/12/17 01:42:40;;;;;;;22.60;13.68;;;8.90;99.90;;;8.91;89.96;102751.41;5042409;28;20045;-83
2023/12/17 01:45:09;;;;;;;19.52;13.88;;;8.90;99.90;;;8.97;89.49;102763.28;5059766;28;20505;-83
2023/12/17 01:47:36;;;;;;;26.55;14.27;;;8.90;99.90;;;9.01;89.23;102762.88;5059837;28;20098;-83
2023/12/17 01:50:06;;;;;;;22.50;14.13;;;9.00;99.90;;;8.99;88.72;102762.19;5060192;28;20464;-83
2023/12/17 01:52:34;;;;;;;26.55;14.75;;;9.00;99.90;;;9.01;88.57;102767.34;5076493;28;20458;-83
2023/12/17 01:55:01;;;;;;;23.10;13.93;;;8.90;99.90;;;9.05;88.61;102765.25;5060920;28;20048;-83
2023/12/17 01:57:29;;;;;;;23.80;14.13;;;9.00;99.90;;;9.07;88.39;102761.44;5076895;28;20044;-85
2023/12/17 01:59:58;;;;;;;25.45;14.20;;;9.00;99.90;;;9.00;87.95;102769.19;5078577;28;20109;-83
2023/12/17 02:02:26;;;;;;;26.13;14.60;;;9.00;99.90;;;8.91;88.46;102766.53;5076676;28;20055;-84
2023/12/17 02:04:55;;;;;;;24.65;15.25;;;8.90;99.90;;;8.88;88.42;102765.03;5076886;28;20080;-83
2023/12/17 02:07:23;;;;;;;23.65;14.48;;;8.90;99.90;;;8.80;88.68;102767.53;5060417;28;20044;-83
2023/12/17 02:09:50;;;;;;;23.40;14.68;;;8.90;99.90;;;8.81;89.37;102760.41;5077983;28;20040;-83
2023/12/17 02:12:26;;;;;;;23.25;14.02;;;8.90;99.90;;;8.89;89.27;102760.53;5077793;28;20120;-83
2023/12/17 02:14:53;;;;;;;25.33;14.68;;;8.90;99.90;;;8.90;88.90;102760.38;5040099;28;20048;-83
2023/12/17 02:17:28;;;;;;;22.33;14.02;;;8.90;99.90;;;8.88;88.82;102754.38;5058179;28;20063;-83
2023/12/17 02:19:55;;;;;;;22.33;14.57;;;8.90;99.90;;;8.76;89.16;102756.34;5056440;28;20087;-83
2023/12/17 02:22:24;;;;;;;25.13;13.95;;;8.90;99.90;;;8.71;89.24;102760.41;5056731;28;20163;-83
2023/12/17 02:24:53;;;;;;;25.85;14.68;;;8.80;99.90;;;8.78;89.72;102753.53;5076302;28;20036;-83
2023/12/17 02:27:22;;;;;;;22.70;14.55;;;8.80;99.90;;;8.87;89.69;102754.50;5076353;28;20154;-83
2023/12/17 02:29:49;;;;;;;23.48;13.88;;;8.90;99.90;;;8.90;89.17;102743.56;5060247;28;20155;-83
2023/12/17 02:32:17;;;;;;;25.02;15.00;;;8.90;99.90;;;8.84;88.89;102736.19;5077931;28;20132;-83
2023/12/17 02:34:45;;;;;;;23.35;14.60;;;8.90;99.90;;;8.75;88.98;102744.03;5076885;28;20167;-83
2023/12/17 02:37:12;;;;;;;25.77;14.73;;;8.80;99.90;;;8.83;89.35;102732.66;5041918;28;20071;-83
2023/12/17 02:39:39;;;;;;;22.70;14.18;;;8.90;99.90;;;8.87;89.22;102739.38;5077299;28;20491;-82
2023/12/17 02:42:09;;;;;;;22.63;14.35;;;8.90;99.90;;;8.92;88.84;102742.44;5075824;28;20466;-83
2023/12/17 02:44:37;;;;;;;22.80;14.02;;;8.90;99.90;;;8.96;88.48;102740.31;5075032;28;20044;-83
2023/12/17 02:47:04;;;;;;;25.05;14.60;;;8.90;99.90;;;8.91;88.36;102737.25;5076240;28;20045;-83
2023/12/17 02:49:33;;;;;;;25.92;14.57;;;8.90;99.90;;;8.89;88.25;102739.25;5058089;28;20037;-83
2023/12/17 02:52:00;;;;;;;28.63;15.18;;;8.90;99.90;;;8.89;88.10;102731.25;5058801;28;20445;-83
2023/12/17 02:54:29;;;;;;;27.70;15.85;;;8.90;99.90;;;8.87;88.22;102731.38;5075158;28;20521;-83
2023/12/17 02:56:56;;;;;;;28.10;15.20;;;8.90;99.90;;;8.87;88.40;102736.69;5058648;28;20134;-82
2023/12/17 02:59:25;;;;;;;24.65;13.98;;;8.80;99.90;;;8.91;88.31;102727.47;5076860;28;20043;-83
2023/12/17 03:01:52;;;;;;;25.67;15.23;;;8.90;99.90;;;8.88;87.88;102727.75;5074490;28;20056;-83
2023/12/17 03:04:20;;;;;;;26.23;15.23;;;8.90;99.90;;;8.84;88.48;102726.38;5075057;28;20094;-83
2023/12/17 03:06:47;;;;;;;24.50;14.57;;;8.80;99.90;;;8.69;88.64;102731.31;5058330;28;20049;-82
2023/12/17 03:09:15;;;;;;;20.38;13.25;;;8.80;99.90;;;8.76;88.88;102727.06;5074978;28;20068;-83
2023/12/17 03:11:43;;;;;;;25.25;14.80;;;8.80;99.90;;;8.76;88.55;102720.91;5075201;28;20045;-83
2023/12/17 03:14:10;;;;;;;26.73;14.57;;;8.80;99.90;;;8.69;89.15;102722.50;5076236;28;20048;-83
2023/12/17 03:16:39;;;;;;;23.52;15.05;;;8.80;99.90;;;8.64;89.13;102727.41;5076833;28;20462;-83
2023/12/17 03:19:06;;;;;;;28.48;16.13;;;8.70;99.90;;;8.54;89.68;102735.38;5076462;28;20048;-83
2023/12/17 03:21:34;;;;;;;27.02;16.15;;;8.70;99.90;;;8.54;90.12;102723.88;5074494;28;20476;-83
2023/12/17 03:24:01;;;;;;;28.27;15.88;;;8.70;99.90;;;8.66;90.17;102722.75;5075647;28;20503;-82
2023/12/17 03:26:29;;;;;;;22.63;14.70;;;8.70;99.90;;;8.72;89.92;102728.34;5075692;28;20040;-83
2023/12/17 03:28:56;;;;;;;24.08;14.57;;;8.80;99.90;;;8.82;89.51;102711.50;5074312;28;20080;-83
2023/12/17 03:31:23;;;;;;;23.13;14.18;;;8.80;99.90;;;8.88;89.10;102721.56;5075616;28;20044;-83
2023/12/17 03:33:52;;;;;;;23.30;14.55;;;8.80;99.90;;;8.91;88.62;102722.13;5074364;28;20064;-83
2023/12/17 03:36:19;;;;;;;24.65;14.70;;;8.90;99.90;;;8.88;88.28;102724.22;5075459;28;20044;-83
2023/12/17 03:38:47;;;;;;;23.23;14.18;;;8.80;99.90;;;8.88;88.46;102716.25;5073894;28;20068;-82
2023/12/17 03:41:22;;;;;;;24.35;14.45;;;8.90;99.90;;;8.92;88.47;102712.31;5074736;28;20419;-83
2023/12/17 03:43:52;;;;;;;21.98;14.10;;;8.90;99.90;;;8.94;87.83;102702.41;5075263;28;20044;-82
2023/12/17 03:46:20;;;;;;;23.10;14.70;;;8.90;99.90;;;8.93;88.13;102706.88;5073892;28;20048;-82
2023/12/17 03:48:48;;;;;;;26.92;15.63;;;8.80;99.90;;;8.77;87.91;102711.94;5073755;28;20090;-82
2023/12/17 03:51:17;;;;;;;24.13;15.15;;;8.80;99.90;;;8.75;88.79;102704.13;5074487;28;20147;-83
2023/12/17 03:53:45;;;;;;;26.23;15.50;;;8.80;99.90;;;8.85;88.84;102705.91;5076340;28;20064;-83
2023/12/17 03:56:14;;;;;;;22.48;14.15;;;8.80;99.90;;;8.88;88.60;102706.47;5075653;28;20049;-83
2023/12/17 03:58:42;;;;;;;22.67;14.70;;;8.80;99.90;;;8.83;88.17;102698.06;5075894;28;20040;-83
2023/12/17 04:01:10;;;;;;;26.52;15.75;;;8.80;99.90;;;8.75;88.46;102696.13;5075094;28;20169;-83
2023/12/17 04:03:38;;;;;;;25.88;15.27;;;8.80;99.90;;;8.75;88.58;102700.63;5074145;28;20033;-83
2023/12/17 04:06:08;;;;;;;28.52;14.45;;;8.80;99.90;;;8.79;88.50;102693.19;5076311;28;20418;-83
2023/12/17 04:08:37;;;;;;;24.17;15.48;;;8.70;99.90;;;8.79;88.30;102690.53;5073717;28;20071;-83
2023/12/17 04:11:06;;;;;;;25.42;15.65;;;8.80;99.90;;;8.79;88.65;102695.88;5057541;28;20405;-83
2023/12/17 04:13:34;;;;;;;31.50;16.35;;;8.70;99.90;;;8.77;88.34;102696.81;5073695;28;20064;-82
2023/12/17 04:16:02;;;;;;;23.65;15.00;;;8.70;99.90;;;8.75;88.33;102685.50;5073739;28;20052;-83
2023/12/17 04:18:29;;;;;;;26.75;16.60;;;8.70;99.90;;;8.74;88.54;102675.00;5074200;28;20098;-83
2023/12/17 04:20:57;;;;;;;25.10;16.92;;;8.80;99.90;;;8.74;88.68;102677.66;5057651;28;20069;-83
2023/12/17 04:23:24;;;;;;;27.65;16.27;;;8.70;99.90;;;8.71;88.65;102672.63;5075468;28;20043;-82
2023/12/17 04:25:53;;;;;;;26.08;16.15;;;8.80;99.90;;;8.77;88.53;102672.03;5075039;28;20087;-83
2023/12/17 04:28:20;;;;;;;28.10;17.20;;;8.80;99.90;;;8.83;88.39;102670.63;5075011;28;20037;-83
2023/12/17 04:30:48;;;;;;;29.92;18.15;;;8.80;99.90;;;8.80;87.90;102668.25;5075417;28;20084;-83
2023/12/17 04:33:15;;;;;;;23.70;16.15;;;8.80;99.90;;;8.80;88.03;102674.41;5073715;28;20032;-83
2023/12/17 04:35:44;;;;;;;29.02;17.30;;;8.80;99.90;;;8.79;87.87;102674.56;5073875;28;20568;-83
2023/12/17 04:38:14;;;;;;;25.67;15.90;;;8.80;99.90;;;8.83;88.15;102670.63;5075249;28;20109;-82
2023/12/17 04:40:45;;;;;;;30.40;17.63;;;8.80;99.90;;;8.80;87.75;102676.25;5074114;28;20492;-82
2023/12/17 04:43:14;;;;;;;26.33;17.92;;;8.70;99.90;;;8.68;87.95;102675.56;5073466;28;20488;-83
2023/12/17 04:45:41;;;;;;;27.65;17.10;;;8.70;99.90;;;8.73;88.37;102674.13;5073674;28;20040;-84
2023/12/17 04:48:08;;;;;;;27.38;17.08;;;8.70;99.90;;;8.68;87.95;102664.94;5073915;28;20462;-83
2023/12/17 04:50:36;;;;;;;26.95;16.27;;;8.70;99.90;;;8.67;88.42;102663.25;5074462;28;20127;-83
2023/12/17 04:53:04;;;;;;;26.35;16.60;;;8.70;99.90;;;8.59;88.36;102664.00;5074318;28;20131;-83
2023/12/17 04:55:32;;;;;;;25.38;17.00;;;8.70;99.90;;;8.70;88.44;102661.16;5074658;28;20139;-83
2023/12/17 04:57:59;;;;;;;29.92;16.98;;;8.70;99.90;;;8.72;87.99;102653.84;5075699;28;20045;-83
2023/12/17 05:00:28;;;;;;;26.38;16.77;;;8.70;99.90;;;8.61;88.14;102653.19;5075436;28;20524;-83
2023/12/17 05:02:55;;;;;;;26.50;16.63;;;8.60;99.90;;;8.66;88.37;102651.78;5054082;28;20068;-83
2023/12/17 05:05:23;;;;;;;26.65;16.98;;;8.60;99.90;;;8.65;87.85;102658.09;5075595;28;20048;-82
2023/12/17 05:07:51;;;;;;;28.95;17.85;;;8.60;99.90;;;8.59;88.04;102657.81;5075880;28;20056;-83
2023/12/17 05:10:18;;;;;;;32.72;18.23;;;8.60;99.90;;;8.54;88.33;102662.72;5075136;28;20049;-83
2023/12/17 05:12:45;;;;;;;26.25;17.52;;;8.60;99.90;;;8.43;88.53;102653.94;5073938;28;20068;-83
2023/12/17 05:15:13;;;;;;;28.88;17.50;;;8.50;99.90;;;8.54;88.82;102652.94;5075423;28;20080;-83
2023/12/17 05:17:42;;;;;;;27.67;16.55;;;8.60;99.90;;;8.57;88.52;102646.47;5024146;28;20422;-82
2023/12/17 05:20:10;;;;;;;29.98;16.60;;;8.60;99.90;;;8.54;88.49;102638.78;5075264;28;20039;-83
2023/12/17 05:22:37;;;;;;;29.17;17.63;;;8.60;99.90;;;8.59;88.38;102647.16;5073799;28;20110;-82
2023/12/17 05:25:06;;;;;;;29.98;17.88;;;8.60;99.90;;;8.58;88.09;102648.16;5074921;28;20404;-83
2023/12/17 05:27:33;;;;;;;27.70;16.40;;;8.60;99.90;;;8.57;88.27;102634.03;5078451;28;20506;-83
2023/12/17 05:30:01;;;;;;;25.85;16.05;;;8.60;99.90;;;8.62;88.26;102634.44;5079146;28;20510;-83
2023/12/17 05:32:28;;;;;;;24.70;15.95;;;8.60;99.90;;;8.67;87.85;102629.50;5077146;28;20048;-83
2023/12/17 05:34:57;;;;;;;24.25;16.00;;;8.60;99.90;;;8.72;87.67;102632.56;5076730;28;20427;-83
2023/12/17 05:37:24;;;;;;;25.30;15.52;;;8.70;99.90;;;8.75;87.35;102634.13;5078301;28;20462;-83
2023/12/17 05:39:52;;;;;;;24.48;15.68;;;8.70;99.90;;;8.72;86.86;102637.88;5076978;28;20048;-83
2023/12/17 05:42:19;;;;;;;24.33;15.10;;;8.70;99.90;;;8.71;86.97;102641.53;5077992;28;20127;-83
2023/12/17 05:44:47;;;;;;;23.38;15.50;;;8.60;99.90;;;8.71;86.89;102649.53;5076656;28;20063;-83
2023/12/17 05:47:14;;;;;;;26.55;15.60;;;8.70;99.90;;;8.52;87.15;102646.91;5060085;28;20052;-83
2023/12/17 05:49:42;;;;;;;25.05;15.43;;;8.60;99.90;;;8.57;87.45;102638.50;5043137;28;20048;-83
2023/12/17 05:52:11;;;;;;;25.13;14.80;;;8.60;99.90;;;8.51;87.68;102634.59;5039907;28;20044;-83
2023/12/17 05:54:38;;;;;;;23.60;14.18;;;8.50;99.90;;;8.59;87.73;102629.41;5067988;28;20044;-83
2023/12/17 05:57:06;;;;;;;24.80;15.38;;;8.60;99.90;;;8.65;87.37;102628.00;5076814;28;20044;-83
2023/12/17 05:59:33;;;;;;;24.50;14.95;;;8.60;99.90;;;8.70;87.09;102623.06;5076012;28;20495;-83
2023/12/17 06:02:01;;;;;;;28.65;15.93;;;8.70;99.90;;;8.70;86.87;102621.25;5078031;28;20132;-83
2023/12/17 06:04:29;;;;;;;21.85;13.90;;;8.60;99.90;;;8.69;87.11;102616.09;5077762;28;20041;-83
2023/12/17 06:06:57;;;;;;;25.20;15.32;;;8.60;99.90;;;8.67;86.86;102621.53;5076782;28;20052;-83
2023/12/17 06:09:26;;;;;;;24.02;14.00;;;8.60;99.90;;;8.67;86.70;102618.88;5076404;28;20037;-83
2023/12/17 06:11:57;;;;;;;23.40;13.50;;;8.60;99.90;;;8.63;86.57;102627.28;5077320;28;20043;-83
2023/12/17 06:14:25;;;;;;;23.08;14.02;;;8.60;99.90;;;8.65;86.52;102626.16;5059774;28;20060;-83
2023/12/17 06:16:53;;;;;;;22.13;14.10;;;8.60;99.90;;;8.62;86.58;102622.94;5077176;28;20049;-83
2023/12/17 06:19:20;;;;;;;21.52;13.70;;;8.60;99.90;;;8.60;86.69;102622.28;5076455;28;20090;-82
2023/12/17 06:21:47;;;;;;;22.90;13.23;;;8.50;99.90;;;8.59;86.86;102625.88;5077617;28;20045;-83
2023/12/17 06:24:15;;;;;;;21.65;13.95;;;8.50;99.90;;;8.61;86.98;102630.09;5075415;28;20051;-83
2023/12/17 06:26:44;;;;;;;20.80;14.07;;;8.50;99.90;;;8.65;86.80;102634.16;5075751;28;20527;-83
2023/12/17 06:29:13;;;;;;;19.88;13.60;;;8.50;99.90;;;8.67;87.00;102642.81;5075993;28;20045;-82
2023/12/17 06:31:41;;;;;;;25.05;14.23;;;8.60;99.90;;;8.72;86.71;102643.22;5077636;28;20045;-83
2023/12/17 06:34:08;;;;;;;23.55;13.05;;;8.60;99.90;;;8.72;86.41;102655.69;5077231;28;20047;-83
2023/12/17 06:36:36;;;;;;;20.83;13.10;;;8.60;99.90;;;8.64;86.15;102659.06;5059197;28;20047;-82
2023/12/17 06:39:08;;;;;;;19.90;12.70;;;8.50;99.90;;;8.57;86.16;102663.28;5075991;28;20063;-83
2023/12/17 06:41:36;;;;;;;20.63;13.07;;;8.50;99.90;;;8.63;86.69;102667.19;5078139;28;20098;-84
2023/12/17 06:44:06;;;;;;;21.40;13.40;;;8.50;99.90;;;8.64;86.10;102672.38;5080188;28;20052;-83
2023/12/17 06:46:33;;;;;;;23.60;14.40;;;8.60;99.90;;;8.52;86.29;102665.53;5061781;28;20051;-84
2023/12/17 06:49:01;;;;;;;22.77;13.68;;;8.50;99.90;;;8.49;86.49;102658.69;5079114;28;20044;-84
2023/12/17 06:51:29;;;;;;;21.33;13.88;;;8.50;99.90;;;8.51;86.81;102661.19;5078859;28;20040;-84
2023/12/17 06:53:56;;;;;;;20.42;12.68;;;8.50;99.90;;;8.55;86.94;102665.25;5059807;28;20131;-84
2023/12/17 06:56:24;;;;;;;20.42;13.05;;;8.50;99.90;;;8.53;86.75;102664.53;5093297;28;20094;-83
2023/12/17 06:58:52;;;;;;;21.60;12.65;;;8.50;99.90;;;8.48;86.63;102675.59;5075759;28;20083;-83
2023/12/17 07:01:21;;;;;;;22.50;13.35;;;8.40;99.90;;;8.48;86.71;102688.06;5077545;28;20076;-83
2023/12/17 07:03:50;;;;;;;20.65;12.73;;;8.50;99.90;;;8.54;86.60;102687.53;5078381;28;20495;-83
2023/12/17 07:06:17;;;;;;;19.48;13.73;;;8.50;99.90;;;8.53;86.66;102688.47;5075978;28;20094;-83
2023/12/17 07:08:45;;;;;;;24.35;13.50;;;8.50;99.90;;;8.59;86.66;102690.59;5075845;28;20040;-84
2023/12/17 07:11:12;;;;;;;19.38;12.38;;;8.50;99.90;;;8.62;86.43;102687.63;5075847;28;20048;-83
2023/12/17 07:13:40;;;;;;;18.55;12.40;;;8.50;99.90;;;8.59;86.10;102682.59;5075785;28;20062;-84
2023/12/17 07:16:10;;;;;;;18.88;12.30;;;8.50;99.90;;;8.66;86.22;102680.19;5077150;28;20045;-84
2023/12/17 07:18:38;;;;;;;21.48;13.38;;;8.60;99.90;;;8.58;85.67;102678.25;5077133;28;20052;-84
2023/12/17 07:21:07;;;;;;;20.33;12.93;;;8.50;99.90;;;8.49;85.63;102672.00;5077120;28;20044;-84
2023/12/17 07:23:34;;;;;;;21.58;13.50;;;8.40;99.90;;;8.44;86.14;102676.03;5076853;28;20071;-84
2023/12/17 07:26:02;;;;;;;20.80;12.82;;;8.40;99.90;;;8.40;86.31;102674.66;5076685;28;20044;-83
2023/12/17 07:28:30;;;;;;;20.35;12.48;;;8.40;99.90;;;8.42;86.69;102670.88;5077277;28;20053;-84
2023/12/17 07:30:57;;;;;;;20.23;12.68;;;8.40;99.90;;;8.35;86.54;102675.06;5076588;28;20032;-84
2023/12/17 07:33:25;;;;;;;22.20;12.27;;;8.40;99.90;;;8.44;86.57;102679.56;5077086;28;20054;-84
2023/12/17 07:35:54;;;;;;;21.80;13.38;;;8.40;99.90;;;8.46;86.28;102674.91;5075969;28;20559;-84
2023/12/17 07:38:21;;;;;;;20.20;13.15;;;8.40;99.90;;;8.52;86.24;102668.19;5076794;28;20098;-84
2023/12/17 07:40:48;;;;;;;18.85;11.65;;;8.50;99.90;;;8.52;85.98;102673.50;5059271;28;20068;-84
2023/12/17 07:43:16;;;;;;;21.38;12.85;;;8.70;99.90;;;8.58;86.10;102674.75;5075795;28;20074;-83
2023/12/17 07:45:44;;;;;;;21.52;11.30;;;8.50;99.90;;;8.55;85.73;102683.03;5058694;28;20137;-84
2023/12/17 07:48:11;;;;;;;18.23;11.35;;;8.50;99.90;;;8.56;85.61;102677.56;5076122;28;20079;-83
2023/12/17 07:50:40;;;;;;;18.92;11.75;;;8.50;99.90;;;8.50;85.50;102673.66;5075114;28;20048;-83
2023/12/17 07:53:10;;;;;;;19.25;11.48;;;8.50;99.90;;;8.50;85.61;102678.97;5076078;28;20154;-83
2023/12/17 07:55:37;;;;;;;19.30;11.38;;;8.50;99.90;;;8.57;85.56;102684.56;5076501;28;20446;-83
2023/12/17 07:58:05;;;;;;;16.25;10.23;;;8.50;99.90;;;8.55;85.77;102680.38;5077560;28;20040;-84
2023/12/17 08:00:32;;;;;;;17.70;9.70;;;8.50;99.90;;;8.58;85.72;102678.25;5079043;28;20483;-84
2023/12/17 08:03:00;;;;;;;20.48;10.48;;;8.50;99.90;;;8.64;85.36;102682.19;5072870;28;20049;-84
2023/12/17 08:05:27;;;;;;;14.60;8.95;;;8.50;99.90;;;8.59;85.06;102682.59;5058290;28;20095;-84
2023/12/17 08:07:55;;;;;;;14.98;9.40;;;8.50;99.90;;;8.58;85.21;102678.25;5058439;28;20102;-84
2023/12/17 08:10:24;;;;;;;15.20;9.20;;;8.50;99.90;;;8.61;85.14;102677.97;5050756;28;20045;-83
2023/12/17 08:12:52;;;;;;;15.80;8.57;;;8.50;99.90;;;8.62;85.17;102674.31;5052500;28;20068;-83
2023/12/17 08:15:20;;;;;;;13.73;9.00;;;8.50;99.90;;;8.64;84.90;102679.53;5034811;28;20162;-83
2023/12/17 08:17:47;;;;;;;12.45;7.85;;;8.50;99.90;;;8.65;84.82;102678.53;5067988;28;20124;-83
2023/12/17 08:20:15;;;;;;;15.07;8.48;;;8.50;99.90;;;8.68;84.76;102679.06;5049420;28;20115;-83
2023/12/17 08:22:43;;;;;;;14.50;7.85;;;8.60;99.90;;;8.69;84.28;102686.09;5039300;28;20408;-83
2023/12/17 08:25:11;;;;;;;15.88;8.20;;;8.60;99.90;;;8.59;84.24;102679.94;5039315;28;20048;-84
2023/12/17 08:27:40;;;;;;;12.13;7.18;;;8.50;99.90;;;8.57;84.23;102676.56;5036102;28;20483;-83
2023/12/17 08:30:10;;;;;;;10.90;7.55;;;8.50;99.90;;;8.53;84.00;102675.19;5053869;28;20527;-84
2023/12/17 08:32:38;;;;;;;11.60;7.05;;;8.50;99.90;;;8.52;84.42;102679.66;5065099;28;20048;-84
2023/12/17 08:35:07;;;;;;;11.73;6.60;;;8.40;99.90;;;8.57;84.57;102673.91;5068346;28;20571;-83
2023/12/17 08:37:34;;;;;;;10.38;6.32;;;8.40;99.90;;;8.44;83.71;102682.22;5052357;28;20546;-83
2023/12/17 08:40:16;;;;;;;9.77;5.95;;;8.40;99.90;;;8.45;84.05;102675.91;5085350;28;20056;-85
2023/12/17 08:42:45;;;;;;;10.07;5.72;;;8.40;99.90;;;8.47;84.32;102676.59;5053061;28;20459;-84
2023/12/17 08:45:22;;;;;;;9.40;5.90;;;8.40;99.90;;;8.54;84.14;102689.31;5052898;28;20463;-84
2023/12/17 08:47:50;;;;;;;9.68;5.75;;;8.40;99.90;;;8.51;83.88;102693.13;5054853;28;20050;-83
2023/12/17 08:50:18;;;;;;;10.75;5.32;;;8.40;99.90;;;8.50;83.51;102686.97;5072858;28;20106;-84
2023/12/17 08:52:45;;;;;;;9.40;5.13;;;8.40;99.90;;;8.33;82.87;102689.47;5073694;28;20076;-83
2023/12/17 08:55:14;;;;;;;8.48;5.28;;;8.30;99.90;;;8.39;83.38;102688.91;5076056;28;20037;-85
2023/12/17 08:57:42;;;;;;;9.52;5.32;;;8.30;99.90;;;8.43;83.13;102693.81;5076870;28;20508;-85
2023/12/17 09:00:17;;;;;;;9.23;5.32;;;8.30;99.90;;;8.43;82.93;102682.34;5074140;28;20048;-84
2023/12/17 09:02:45;;;;;;;11.05;5.50;;;8.30;99.90;;;8.44;83.06;102676.03;5061278;28;20048;-83
2023/12/17 09:05:13;;;;;;;10.88;6.07;;;8.30;99.90;;;8.50;82.82;102680.81;5080787;28;20044;-83
2023/12/17 09:07:42;;;;;;;12.20;7.32;;;8.40;99.90;;;8.48;82.59;102677.44;5078969;28;20053;-83
2023/12/17 09:10:09;;;;;;;12.85;6.82;;;8.40;99.90;;;8.49;82.64;102668.47;5080186;28;20064;-83
2023/12/17 09:12:37;;;;;;;13.18;7.40;;;8.40;99.90;;;8.50;82.34;102664.84;5079816;28;20067;-83
2023/12/17 09:15:07;;;;;;;13.63;8.00;;;8.40;99.90;;;8.50;82.45;102670.16;5078916;28;20044;-83
2023/12/17 09:17:36;;;;;;;14.40;8.05;;;8.40;99.90;;;8.52;82.43;102670.84;5079618;28;20044;-83
2023/12/17 09:20:04;;;;;;;12.10;7.13;;;8.40;99.90;;;8.57;82.39;102671.25;5012058;28;20048;-83
2023/12/17 09:22:33;;;;;;;14.23;8.20;;;8.40;99.90;;;8.60;82.29;102670.16;5078148;28;20090;-83
2023/12/17 09:25:00;;;;;;;11.23;7.57;;;8.40;99.90;;;8.61;82.30;102672.66;5079955;28;20124;-83
2023/12/17 09:27:28;;;;;;;12.07;7.53;;;8.40;99.90;;;8.61;81.95;102669.16;5081350;28;20042;-84
2023/12/17 09:29:57;;;;;;;13.38;8.23;;;8.40;99.90;;;8.63;82.12;102654.72;5080621;28;20066;-83
2023/12/17 09:32:26;;;;;;;14.15;8.40;;;8.50;99.90;;;8.65;82.19;102657.25;5062525;28;20423;-84
2023/12/17 09:34:55;;;;;;;15.13;8.18;;;8.50;99.90;;;8.64;81.98;102656.41;5079682;28;20457;-84
2023/12/17 09:37:23;;;;;;;15.95;8.73;;;8.50;99.90;;;8.63;82.03;102657.38;5079305;28;20044;-83
2023/12/17 09:39:51;;;;;;;16.98;9.00;;;8.50;99.90;;;8.67;82.13;102661.44;5082431;28;20526;-83
2023/12/17 09:42:20;;;;;;;16.52;9.35;;;8.50;99.90;;;8.70;82.03;102668.28;5079507;28;20098;-83
2023/12/17 09:44:48;;;;;;;18.40;9.80;;;8.60;99.90;;;8.72;81.97;102668.97;5077945;28;20045;-84
2023/12/17 09:47:16;;;;;;;20.45;10.18;;;8.60;99.90;;;8.74;81.98;102662.53;5046466;28;20055;-83
2023/12/17 09:49:43;;;;;;;19.52;10.10;;;8.60;99.90;;;8.72;81.98;102663.66;5078001;28;20120;-84
2023/12/17 09:52:13;;;;;;;20.42;10.82;;;8.60;99.90;;;8.69;81.61;102658.66;5077670;28;20044;-83
2023/12/17 09:54:41;;;;;;;21.85;10.73;;;8.60;99.90;;;8.65;81.81;102658.09;5078884;28;20044;-84
2023/12/17 09:57:11;;;;;;;21.35;11.40;;;8.50;99.90;;;8.65;81.99;102662.56;5097878;28;20392;-83
2023/12/17 09:59:39;;;;;;;22.52;11.27;;;8.50;99.90;;;8.70;82.31;102661.16;5099347;28;20056;-83
2023/12/17 10:02:07;;;;;;;19.83;11.45;;;8.60;99.90;;;8.60;81.89;102655.03;5065296;28;20148;-83
2023/12/17 10:04:35;;;;;;;22.00;11.20;;;8.50;99.90;;;8.62;82.41;102655.69;5081649;28;20392;-85
2023/12/17 10:07:03;;;;;;;22.73;11.68;;;8.50;99.90;;;8.58;82.14;102651.66;5099306;28;20052;-83
2023/12/17 10:09:35;;;;;;;21.90;11.82;;;8.50;99.90;;;8.54;82.56;102657.41;5065874;28;20528;-84
2023/12/17 10:12:03;;;;;;;25.00;13.55;;;8.50;99.90;;;8.52;82.65;102647.75;5097093;28;20044;-84
2023/12/17 10:14:32;;;;;;;26.10;13.90;;;8.50;99.90;;;8.49;82.81;102652.50;5098011;28;20052;-85
2023/12/17 10:17:00;;;;;;;24.35;13.80;;;8.50;99.90;;;8.47;82.92;102650.00;5098193;28;20048;-84